Time;durP1;ratioP1;P1;durP2;ratioP2;P2;SDS_P1;SDS_P2;PMS_P1;PMS_P2;Temp;Humidity;BMP_temperature;BMP_pressure;BME280_temperature;BME280_humidity;BME280_pressure;Samples;Min_cycle;Max_cycle;Signal;HPM_P1;HPM_P2
2021/10/16 00:00:51;;;;;;;6.88;2.85;;;;;;;0.81;100.00;93353.25;2082480;28;20029;-86
2021/10/16 00:01:52;;;;;;;5.07;2.72;;;;;;;0.77;100.00;93347.16;2082382;28;20021;-84
2021/10/16 00:02:53;;;;;;;3.65;2.55;;;;;;;0.79;100.00;93344.97;2074247;28;20026;-85
2021/10/16 00:03:54;;;;;;;2.60;2.40;;;;;;;0.73;100.00;93341.09;2074309;28;20037;-87
2021/10/16 00:04:56;;;;;;;2.83;2.30;;;;;;;0.72;100.00;93348.22;2090652;28;20071;-85
2021/10/16 00:05:57;;;;;;;3.97;2.85;;;;;;;0.73;100.00;93354.25;2082465;28;20025;-84
2021/10/16 00:06:58;;;;;;;4.20;2.35;;;;;;;0.68;100.00;93347.38;2074127;28;20068;-83
2021/10/16 00:07:59;;;;;;;3.10;2.40;;;;;;;0.63;100.00;93350.31;2082362;28;20025;-85
2021/10/16 00:09:00;;;;;;;2.20;2.00;;;;;;;0.71;100.00;93349.31;2090193;28;20091;-84
2021/10/16 00:10:01;;;;;;;3.67;2.40;;;;;;;0.71;100.00;93344.06;2090370;28;20394;-85
2021/10/16 00:11:02;;;;;;;4.78;2.50;;;;;;;0.68;100.00;93349.25;2090654;28;20049;-87
2021/10/16 00:12:04;;;;;;;3.45;2.35;;;;;;;0.68;100.00;93344.00;2090344;28;20360;-83
2021/10/16 00:13:05;;;;;;;2.72;2.10;;;;;;;0.61;100.00;93346.47;2107428;28;20028;-84
2021/10/16 00:14:06;;;;;;;4.20;2.30;;;;;;;0.58;100.00;93347.19;2107169;28;20524;-85
2021/10/16 00:15:07;;;;;;;2.35;2.15;;;;;;;0.65;100.00;93347.31;2098705;28;20028;-85
2021/10/16 00:16:09;;;;;;;2.85;2.30;;;;;;;0.54;100.00;93344.50;2098856;28;20055;-85
2021/10/16 00:17:10;;;;;;;3.15;2.33;;;;;;;0.49;100.00;93342.91;2099087;28;20137;-86
2021/10/16 00:18:11;;;;;;;2.72;2.30;;;;;;;0.50;100.00;93354.94;2107205;28;20487;-84
2021/10/16 00:19:12;;;;;;;3.25;2.20;;;;;;;0.57;100.00;93345.66;2109925;28;20115;-86
2021/10/16 00:20:13;;;;;;;2.20;2.00;;;;;;;0.53;100.00;93350.88;2090426;28;20052;-86
2021/10/16 00:21:14;;;;;;;3.83;2.42;;;;;;;0.52;100.00;93343.31;2090170;28;20096;-86
2021/10/16 00:22:20;;;;;;;2.55;2.20;;;;;;;0.57;100.00;93346.44;2074099;28;20613;-86
2021/10/16 00:23:21;;;;;;;2.45;2.25;;;;;;;0.59;100.00;93351.34;2082806;28;20025;-84
2021/10/16 00:24:22;;;;;;;2.65;2.45;;;;;;;0.59;100.00;93343.44;2090468;28;20118;-85
2021/10/16 00:25:22;;;;;;;3.95;2.30;;;;;;;0.49;100.00;93350.78;2101141;28;20077;-84
2021/10/16 00:26:23;;;;;;;7.07;2.42;;;;;;;0.52;100.00;93348.56;2084948;28;20033;-86
2021/10/16 00:27:24;;;;;;;3.58;2.50;;;;;;;0.54;100.00;93354.25;2082155;28;20021;-84
2021/10/16 00:28:25;;;;;;;3.17;2.30;;;;;;;0.54;100.00;93352.38;2090265;28;20043;-84
2021/10/16 00:29:26;;;;;;;2.40;2.20;;;;;;;0.56;100.00;93352.78;2090347;28;20473;-85
2021/10/16 00:30:27;;;;;;;2.67;2.03;;;;;;;0.52;100.00;93351.19;2082208;28;20018;-86
2021/10/16 00:31:28;;;;;;;3.63;2.30;;;;;;;0.51;100.00;93353.06;2082232;28;20100;-85
2021/10/16 00:32:29;;;;;;;2.13;2.00;;;;;;;0.49;100.00;93347.41;2082047;28;20442;-83
2021/10/16 00:33:30;;;;;;;4.20;2.92;;;;;;;0.50;100.00;93362.06;2082224;28;20116;-84
2021/10/16 00:34:31;;;;;;;2.65;2.40;;;;;;;0.39;100.00;93356.56;2098646;28;20032;-85
2021/10/16 00:35:33;;;;;;;2.92;2.30;;;;;;;0.45;100.00;93354.44;2106799;28;20031;-82
2021/10/16 00:36:34;;;;;;;5.25;2.03;;;;;;;0.38;100.00;93355.06;2098589;28;20016;-85
2021/10/16 00:37:35;;;;;;;3.20;2.33;;;;;;;0.38;100.00;93349.81;2081995;28;20741;-83
2021/10/16 00:38:36;;;;;;;3.38;2.05;;;;;;;0.40;100.00;93342.34;2073819;28;20398;-85
2021/10/16 00:39:37;;;;;;;3.90;2.30;;;;;;;0.34;100.00;93348.22;2090181;28;20036;-85
2021/10/16 00:40:38;;;;;;;2.92;2.20;;;;;;;0.30;100.00;93345.50;2090085;28;20109;-85
2021/10/16 00:41:39;;;;;;;3.22;2.35;;;;;;;0.33;100.00;93349.31;2081893;28;20113;-84
2021/10/16 00:42:51;;;;;;;2.50;2.17;;;;;;;0.27;100.00;93343.59;2090261;28;20025;-84
2021/10/16 00:44:15;;;;;;;4.20;1.92;;;;;;;0.41;100.00;93343.88;2083850;28;20021;-86
2021/10/16 00:45:18;;;;;;;4.03;2.35;;;;;;;0.28;100.00;93346.97;2096423;28;20054;-85
2021/10/16 00:46:19;;;;;;;4.78;2.30;;;;;;;0.33;100.00;93351.94;2098534;28;20029;-84
2021/10/16 00:47:20;;;;;;;3.17;2.42;;;;;;;0.33;100.00;93351.94;2089656;28;20078;-84
2021/10/16 00:48:21;;;;;;;4.18;2.08;;;;;;;0.36;100.00;93354.66;2097907;28;20020;-85
2021/10/16 00:49:23;;;;;;;2.67;2.22;;;;;;;0.38;100.00;93349.81;2090099;28;20048;-85
2021/10/16 00:50:25;;;;;;;2.50;2.30;;;;;;;0.39;100.00;93353.19;2082479;28;20025;-86
2021/10/16 00:51:26;;;;;;;3.67;2.15;;;;;;;0.34;100.00;93351.59;2082017;28;20343;-85
2021/10/16 00:52:27;;;;;;;3.25;2.45;;;;;;;0.29;100.00;93353.75;2073721;28;20037;-84
2021/10/16 00:53:28;;;;;;;2.25;2.03;;;;;;;0.26;100.00;93352.56;2081978;28;20022;-85
2021/10/16 00:54:30;;;;;;;2.42;2.10;;;;;;;0.31;100.00;93354.16;2090009;28;20076;-84
2021/10/16 00:55:31;;;;;;;4.18;2.45;;;;;;;0.30;100.00;93355.25;2090260;28;20440;-84
2021/10/16 00:56:32;;;;;;;5.55;2.65;;;;;;;0.33;100.00;93349.31;2090589;28;20025;-86
2021/10/16 00:57:33;;;;;;;3.10;2.08;;;;;;;0.35;100.00;93358.41;2081788;28;20120;-85
2021/10/16 00:58:34;;;;;;;2.38;2.00;;;;;;;0.41;100.00;93351.00;2085927;28;20029;-84
2021/10/16 00:59:35;;;;;;;2.70;1.88;;;;;;;0.46;100.00;93346.22;2090080;28;20021;-84
2021/10/16 01:00:36;;;;;;;3.42;2.20;;;;;;;0.45;100.00;93349.94;2098359;28;20107;-84
2021/10/16 01:01:38;;;;;;;3.22;2.00;;;;;;;0.34;100.00;93348.22;2098351;28;20033;-84
2021/10/16 01:02:39;;;;;;;3.25;2.40;;;;;;;0.41;100.00;93351.75;2098515;28;20047;-86
2021/10/16 01:03:40;;;;;;;2.28;2.08;;;;;;;0.34;100.00;93350.84;2098652;28;20021;-85
2021/10/16 01:04:41;;;;;;;3.17;2.33;;;;;;;0.34;100.00;93350.84;2098651;28;20021;-82
2021/10/16 01:05:42;;;;;;;2.20;2.00;;;;;;;0.30;100.00;93348.13;2115241;28;20023;-86
2021/10/16 01:06:44;;;;;;;4.80;2.20;;;;;;;0.27;100.00;93346.22;2115077;28;20023;-86
2021/10/16 01:07:45;;;;;;;2.40;2.20;;;;;;;0.23;100.00;93348.75;2114919;28;20027;-84
2021/10/16 01:08:46;;;;;;;3.05;2.05;;;;;;;0.22;100.00;93351.72;2106307;28;20120;-83
2021/10/16 01:09:47;;;;;;;2.75;2.50;;;;;;;0.25;100.00;93351.78;2090018;28;20032;-85
2021/10/16 01:10:48;;;;;;;3.35;2.05;;;;;;;0.10;100.00;93349.22;2098373;28;20031;-85
2021/10/16 01:11:53;;;;;;;3.90;2.00;;;;;;;0.22;100.00;93360.38;2098229;28;20112;-84
2021/10/16 01:12:56;;;;;;;1.90;1.65;;;;;;;0.28;100.00;93345.09;2099370;28;20416;-84
2021/10/16 01:13:57;;;;;;;2.85;2.30;;;;;;;0.29;100.00;93345.84;2107032;28;20043;-84
2021/10/16 01:15:04;;;;;;;2.85;2.10;;;;;;;0.26;100.00;93339.41;2098281;28;20043;-84
2021/10/16 01:16:05;;;;;;;2.13;1.98;;;;;;;0.30;100.00;93348.13;2098946;28;20025;-86
2021/10/16 01:17:06;;;;;;;3.78;2.40;;;;;;;0.27;100.00;93340.94;2098256;28;20080;-86
2021/10/16 01:18:07;;;;;;;3.47;2.50;;;;;;;0.25;100.00;93353.66;2098179;28;20028;-86
2021/10/16 01:19:20;;;;;;;2.03;1.92;;;;;;;0.27;100.00;93343.59;2106638;28;20028;-85
2021/10/16 01:20:23;;;;;;;2.30;2.10;;;;;;;0.17;100.00;93342.22;2115209;28;20485;-86
2021/10/16 01:21:25;;;;;;;2.70;2.10;;;;;;;0.16;100.00;93350.47;2115569;28;20019;-85
2021/10/16 01:22:27;;;;;;;2.33;2.13;;;;;;;0.17;100.00;93339.59;2115008;28;20019;-85
2021/10/16 01:23:28;;;;;;;2.28;2.03;;;;;;;0.17;100.00;93341.47;2098196;28;20024;-86
2021/10/16 01:24:29;;;;;;;2.25;2.05;;;;;;;0.12;100.00;93344.38;2098278;28;20543;-84
2021/10/16 01:25:32;;;;;;;3.40;2.28;;;;;;;0.15;100.00;93346.34;2106609;28;20020;-84
2021/10/16 01:26:33;;;;;;;2.63;2.08;;;;;;;0.11;100.00;93342.88;2089747;28;20076;-85
2021/10/16 01:27:37;;;;;;;2.20;2.00;;;;;;;0.17;100.00;93346.72;2089912;28;20029;-84
2021/10/16 01:28:38;;;;;;;3.25;2.15;;;;;;;0.17;100.00;93342.22;2081944;28;20029;-86
2021/10/16 01:29:40;;;;;;;2.63;2.28;;;;;;;0.17;100.00;93342.22;2081757;28;20490;-83
2021/10/16 01:30:41;;;;;;;5.22;2.50;;;;;;;0.16;100.00;93339.97;2081643;28;20017;-85
2021/10/16 01:31:42;;;;;;;2.05;1.90;;;;;;;0.11;100.00;93343.63;2073566;28;20022;-84
2021/10/16 01:32:43;;;;;;;2.25;2.03;;;;;;;0.14;100.00;93339.56;2081681;28;20048;-82
2021/10/16 01:33:44;;;;;;;3.13;2.03;;;;;;;0.17;100.00;93341.47;2081504;28;20425;-85
2021/10/16 01:34:45;;;;;;;3.95;2.40;;;;;;;0.17;100.00;93336.22;2081726;28;20022;-86
2021/10/16 01:36:04;;;;;;;2.50;2.30;;;;;;;0.16;100.00;93332.06;2089890;28;20020;-85
2021/10/16 01:37:05;;;;;;;2.30;2.10;;;;;;;0.13;100.00;93332.75;2086568;28;20045;-85
2021/10/16 01:38:06;;;;;;;2.70;2.10;;;;;;;0.16;100.00;93338.09;2098035;28;20520;-84
2021/10/16 01:39:07;;;;;;;3.50;2.33;;;;;;;0.16;100.00;93335.47;2098025;28;20013;-83
2021/10/16 01:40:10;;;;;;;6.18;2.65;;;;;;;0.12;100.00;93332.00;2089843;28;20020;-84
2021/10/16 01:41:11;;;;;;;2.53;2.33;;;;;;;0.16;100.00;93334.69;2081659;28;20024;-84
2021/10/16 01:42:13;;;;;;;2.63;2.40;;;;;;;0.08;100.00;93336.41;2081889;28;20029;-86
2021/10/16 01:43:14;;;;;;;3.80;2.40;;;;;;;0.05;100.00;93331.09;2089767;28;20477;-84
2021/10/16 01:44:16;;;;;;;2.20;2.03;;;;;;;0.09;100.00;93331.91;2089771;28;20024;-86
2021/10/16 01:45:18;;;;;;;4.32;2.47;;;;;;;0.10;100.00;93325.56;2089928;28;20056;-84
2021/10/16 01:46:19;;;;;;;3.15;2.65;;;;;;;0.12;100.00;93321.47;2098479;28;20111;-84
2021/10/16 01:47:20;;;;;;;3.67;2.20;;;;;;;0.12;100.00;93324.13;2098200;28;20058;-85
2021/10/16 01:48:23;;;;;;;2.70;2.50;;;;;;;0.18;100.00;93324.63;2089764;28;20025;-87
2021/10/16 01:49:24;;;;;;;4.15;2.15;;;;;;;0.11;100.00;93325.22;2081737;28;20033;-84
2021/10/16 01:50:24;;;;;;;3.10;2.30;;;;;;;0.10;100.00;93336.09;2073309;28;20029;-86
2021/10/16 01:51:25;;;;;;;2.60;2.30;;;;;;;0.00;100.00;93329.50;2073239;28;20026;-85
2021/10/16 01:52:29;;;;;;;4.30;2.50;;;;;;;-0.02;100.00;93327.22;2081423;28;20056;-85
2021/10/16 01:53:30;;;;;;;4.07;2.63;;;;;;;-0.03;100.00;93330.94;2098017;28;20666;-83
2021/10/16 01:54:31;;;;;;;2.75;2.45;;;;;;;-0.05;100.00;93327.13;2089689;28;20027;-83
2021/10/16 01:55:32;;;;;;;2.55;2.22;;;;;;;-0.02;100.00;93327.22;2073870;28;20029;-86
2021/10/16 01:56:33;;;;;;;4.80;2.40;;;;;;;-0.01;100.00;93323.47;2081103;28;20029;-85
2021/10/16 01:57:35;;;;;;;4.82;2.40;;;;;;;0.03;100.00;93331.44;2089751;28;20095;-84
2021/10/16 01:58:36;;;;;;;2.35;2.15;;;;;;;0.01;100.00;93322.38;2081450;28;20167;-83
2021/10/16 01:59:36;;;;;;;2.78;2.22;;;;;;;0.00;100.00;93324.25;2081377;28;20041;-83
2021/10/16 02:00:38;;;;;;;3.90;2.47;;;;;;;-0.09;100.00;93326.28;2073214;28;20022;-84
2021/10/16 02:01:39;;;;;;;4.07;2.25;;;;;;;-0.09;100.00;93329.69;2081597;28;20747;-84
2021/10/16 02:02:40;;;;;;;3.67;2.67;;;;;;;-0.21;100.00;93323.78;2097958;28;20023;-84
2021/10/16 02:03:41;;;;;;;2.42;2.22;;;;;;;-0.17;100.00;93328.03;2089580;28;20027;-84
2021/10/16 02:04:42;;;;;;;2.95;2.40;;;;;;;-0.07;100.00;93322.22;2081653;28;20032;-83
2021/10/16 02:05:45;;;;;;;2.85;2.22;;;;;;;0.03;100.00;93328.03;2081439;28;20025;-85
2021/10/16 02:08:02;;;;;;;;;;;;;;;-0.11;100.00;93324.00;2123128;27;20573;-85
2021/10/16 02:09:04;;;;;;;4.68;2.42;;;;;;;-0.12;100.00;93321.75;2113609;28;19912;-84
2021/10/16 02:10:05;;;;;;;4.95;2.67;;;;;;;-0.12;100.00;93327.00;2105265;28;20055;-86
2021/10/16 02:11:06;;;;;;;2.38;2.15;;;;;;;-0.22;100.00;93325.66;2101708;28;20033;-86
2021/10/16 02:12:07;;;;;;;2.60;2.40;;;;;;;-0.27;100.00;93325.91;2100889;28;20527;-84
2021/10/16 02:13:09;;;;;;;2.42;2.22;;;;;;;-0.26;100.00;93324.81;2104634;28;20048;-84
2021/10/16 02:14:11;;;;;;;2.50;2.22;;;;;;;-0.27;100.00;93324.03;2100893;28;20021;-84
2021/10/16 02:15:12;;;;;;;4.57;2.70;;;;;;;-0.22;100.00;93320.41;2088542;28;20371;-85
2021/10/16 02:16:13;;;;;;;4.40;2.72;;;;;;;-0.13;100.00;93320.19;2088506;28;20032;-85
2021/10/16 02:17:14;;;;;;;3.08;2.78;;;;;;;-0.16;100.00;93326.16;2088444;28;20565;-83
2021/10/16 02:18:14;;;;;;;3.03;2.25;;;;;;;-0.13;100.00;93323.59;2088674;28;20422;-85
2021/10/16 02:19:15;;;;;;;2.67;2.30;;;;;;;-0.09;100.00;93319.19;2096872;28;20039;-84
2021/10/16 02:20:16;;;;;;;3.00;2.50;;;;;;;-0.16;100.00;93329.53;2088450;28;20478;-84
2021/10/16 02:21:17;;;;;;;2.78;2.42;;;;;;;-0.22;100.00;93320.41;2096688;28;20025;-85
2021/10/16 02:22:18;;;;;;;5.82;1.95;;;;;;;-0.17;100.00;93325.41;2094221;28;20021;-83
2021/10/16 02:23:19;;;;;;;3.88;3.30;;;;;;;-0.15;100.00;93323.16;2096706;28;20056;-84
2021/10/16 02:24:20;;;;;;;2.88;2.58;;;;;;;-0.16;100.00;93326.91;2104997;28;20032;-83
2021/10/16 02:25:21;;;;;;;3.20;2.38;;;;;;;-0.20;100.00;93322.69;2105146;28;20119;-85
2021/10/16 02:26:22;;;;;;;2.40;2.20;;;;;;;-0.13;100.00;93320.97;2097312;28;20032;-85
2021/10/16 02:27:24;;;;;;;4.70;2.10;;;;;;;-0.12;100.00;93327.00;2105136;28;20025;-84
2021/10/16 02:28:25;;;;;;;2.53;2.33;;;;;;;-0.15;100.00;93320.53;2104980;28;20370;-83
2021/10/16 02:29:26;;;;;;;3.10;2.28;;;;;;;-0.30;100.00;93323.97;2104980;28;20032;-86
2021/10/16 02:30:27;;;;;;;2.47;2.28;;;;;;;-0.25;100.00;93326.34;2096532;28;20021;-83
2021/10/16 02:31:29;;;;;;;5.95;2.53;;;;;;;-0.22;100.00;93330.13;2088442;28;20375;-83
2021/10/16 02:32:30;;;;;;;2.42;2.20;;;;;;;-0.34;100.00;93323.91;2080284;28;20061;-83
2021/10/16 02:33:31;;;;;;;6.10;2.47;;;;;;;-0.31;100.00;93325.06;2088361;28;20025;-87
2021/10/16 02:34:32;;;;;;;4.30;2.20;;;;;;;-0.37;100.00;93316.69;2088381;28;20055;-83
2021/10/16 02:35:33;;;;;;;4.93;2.55;;;;;;;-0.31;100.00;93320.59;2088473;28;20029;-82
2021/10/16 02:36:34;;;;;;;2.70;2.50;;;;;;;-0.24;100.00;93319.97;2088429;28;20047;-85
2021/10/16 02:37:35;;;;;;;2.38;2.15;;;;;;;-0.17;100.00;93319.38;2088430;28;20108;-85
2021/10/16 02:38:36;;;;;;;2.65;2.40;;;;;;;-0.26;100.00;93322.19;2088251;28;20029;-84
2021/10/16 02:39:37;;;;;;;2.60;2.40;;;;;;;-0.27;100.00;93321.41;2080101;28;20029;-84
2021/10/16 02:40:38;;;;;;;2.75;2.47;;;;;;;-0.37;100.00;93316.69;2088433;28;20059;-85
2021/10/16 02:41:39;;;;;;;2.70;2.50;;;;;;;-0.26;100.00;93320.31;2096638;28;20028;-86
2021/10/16 02:42:41;;;;;;;4.80;2.28;;;;;;;-0.26;100.00;93322.94;2096617;28;20028;-84
2021/10/16 02:43:42;;;;;;;4.20;2.42;;;;;;;-0.31;100.00;93315.34;2096673;28;20055;-85
2021/10/16 02:44:43;;;;;;;5.63;2.45;;;;;;;-0.25;100.00;93318.47;2088434;28;20025;-86
2021/10/16 02:45:44;;;;;;;2.83;2.60;;;;;;;-0.24;100.00;93314.72;2088186;28;20025;-85
2021/10/16 02:46:45;;;;;;;2.88;2.50;;;;;;;-0.20;100.00;93318.19;2088211;28;20033;-84
2021/10/16 02:47:46;;;;;;;2.58;2.28;;;;;;;-0.28;100.00;93313.88;2081276;28;20029;-83
2021/10/16 02:48:47;;;;;;;2.70;2.20;;;;;;;-0.26;100.00;93322.94;2088290;28;20036;-83
2021/10/16 02:49:48;;;;;;;2.70;2.42;;;;;;;-0.23;100.00;93323.34;2104958;28;20504;-84
2021/10/16 02:50:49;;;;;;;3.75;2.45;;;;;;;-0.22;100.00;93314.38;2113161;28;20110;-83
2021/10/16 02:51:50;;;;;;;2.53;2.33;;;;;;;-0.19;100.00;93321.56;2098057;28;20107;-86
2021/10/16 02:52:51;;;;;;;4.10;2.13;;;;;;;-0.26;100.00;93319.56;2096459;28;20086;-84
2021/10/16 02:53:52;;;;;;;2.92;2.33;;;;;;;-0.30;100.00;93313.47;2096673;28;20473;-86
2021/10/16 02:54:53;;;;;;;3.15;2.85;;;;;;;-0.22;100.00;93322.25;2104942;28;20077;-84
2021/10/16 02:55:54;;;;;;;3.25;2.50;;;;;;;-0.24;100.00;93319.97;2104724;28;20407;-84
2021/10/16 02:56:55;;;;;;;2.80;2.50;;;;;;;-0.37;100.00;93321.19;2096556;28;20033;-85
2021/10/16 02:57:56;;;;;;;7.28;2.67;;;;;;;-0.41;100.00;93321.09;2096444;28;20017;-86
2021/10/16 02:58:57;;;;;;;2.53;2.33;;;;;;;-0.25;100.00;93321.09;2104805;28;20028;-84
2021/10/16 02:59:58;;;;;;;2.95;2.33;;;;;;;-0.26;100.00;93319.56;2096389;28;20111;-83
2021/10/16 03:00:59;;;;;;;4.47;2.35;;;;;;;-0.41;100.00;93328.22;2096540;28;20024;-83
2021/10/16 03:02:00;;;;;;;2.97;2.33;;;;;;;-0.41;100.00;93320.34;2088265;28;20053;-84
2021/10/16 03:03:01;;;;;;;2.63;2.22;;;;;;;-0.36;100.00;93325.31;2088267;28;20509;-85
2021/10/16 03:04:02;;;;;;;5.70;2.65;;;;;;;-0.25;100.00;93323.72;2096306;28;20483;-84
2021/10/16 03:05:04;;;;;;;4.68;2.45;;;;;;;-0.27;100.00;93318.78;2088043;28;20033;-84
2021/10/16 03:06:05;;;;;;;3.50;2.45;;;;;;;-0.30;100.00;93321.34;2080220;28;20033;-85
2021/10/16 03:07:06;;;;;;;2.33;1.98;;;;;;;-0.38;100.00;93322.28;2079662;28;20026;-85
2021/10/16 03:08:07;;;;;;;3.40;2.88;;;;;;;-0.30;100.00;93324.75;2071726;28;20090;-84
2021/10/16 03:09:08;;;;;;;4.03;2.47;;;;;;;-0.36;100.00;93325.31;2079958;28;20037;-83
2021/10/16 03:10:09;;;;;;;3.45;2.30;;;;;;;-0.31;100.00;93317.19;2079819;28;20025;-84
2021/10/16 03:11:10;;;;;;;5.68;2.90;;;;;;;-0.34;100.00;93320.50;2088482;28;20441;-85
2021/10/16 03:12:11;;;;;;;2.72;2.53;;;;;;;-0.33;100.00;93322.78;2096188;28;20031;-84
2021/10/16 03:13:12;;;;;;;2.88;2.10;;;;;;;-0.31;100.00;93325.06;2096185;28;20473;-84
2021/10/16 03:14:13;;;;;;;5.05;2.50;;;;;;;-0.33;100.00;93322.03;2096147;28;20115;-84
2021/10/16 03:15:14;;;;;;;5.10;2.13;;;;;;;-0.36;100.00;93323.47;2096295;28;20431;-83
2021/10/16 03:16:16;;;;;;;2.83;2.55;;;;;;;-0.37;100.00;93326.44;2088108;28;20025;-84
2021/10/16 03:17:17;;;;;;;4.68;2.70;;;;;;;-0.38;100.00;93322.28;2096429;28;20099;-82
2021/10/16 03:18:18;;;;;;;6.30;2.90;;;;;;;-0.45;100.00;93324.75;2096367;28;20031;-82
2021/10/16 03:19:19;;;;;;;3.45;2.42;;;;;;;-0.47;100.00;93330.34;2090954;28;20033;-85
2021/10/16 03:20:20;;;;;;;3.45;3.13;;;;;;;-0.40;100.00;93325.25;2099191;28;20020;-85
2021/10/16 03:21:21;;;;;;;4.65;2.30;;;;;;;-0.35;100.00;93321.59;2099055;28;20025;-84
2021/10/16 03:22:22;;;;;;;3.75;2.47;;;;;;;-0.30;100.00;93330.00;2090831;28;20457;-85
2021/10/16 03:23:23;;;;;;;2.92;2.63;;;;;;;-0.27;100.00;93326.66;2082562;28;20021;-85
2021/10/16 03:24:25;;;;;;;2.90;2.60;;;;;;;-0.27;100.00;93326.66;2082652;28;20060;-82
2021/10/16 03:25:26;;;;;;;6.57;2.55;;;;;;;-0.34;100.00;93323.91;2091048;28;20492;-83
2021/10/16 03:26:27;;;;;;;3.35;2.38;;;;;;;-0.37;100.00;93319.31;2082586;28;20068;-85
2021/10/16 03:27:28;;;;;;;2.42;2.20;;;;;;;-0.43;100.00;93325.94;2082179;28;20466;-84
2021/10/16 03:28:29;;;;;;;3.08;2.50;;;;;;;-0.38;100.00;93330.16;2082563;28;20033;-85
2021/10/16 03:29:31;;;;;;;2.85;2.50;;;;;;;-0.44;100.00;93323.63;2090574;28;20111;-84
2021/10/16 03:30:32;;;;;;;3.03;2.33;;;;;;;-0.45;100.00;93317.63;2090894;28;20059;-83
2021/10/16 03:31:33;;;;;;;5.60;2.50;;;;;;;-0.40;100.00;93325.25;2090730;28;20469;-84
2021/10/16 03:32:34;;;;;;;4.60;2.85;;;;;;;-0.41;100.00;93317.72;2082381;28;20029;-83
2021/10/16 03:33:35;;;;;;;5.68;2.55;;;;;;;-0.43;100.00;93325.94;2082445;28;20022;-82
2021/10/16 03:34:36;;;;;;;3.78;2.45;;;;;;;-0.45;100.00;93330.75;2090555;28;20516;-84
2021/10/16 03:35:37;;;;;;;3.28;2.42;;;;;;;-0.42;100.00;93324.84;2098888;28;20031;-84
2021/10/16 03:36:39;;;;;;;4.03;2.97;;;;;;;-0.40;100.00;93325.25;2090781;28;20043;-83
2021/10/16 03:37:40;;;;;;;3.60;2.53;;;;;;;-0.36;100.00;93325.31;2090752;28;20017;-82
2021/10/16 03:38:40;;;;;;;3.38;2.78;;;;;;;-0.38;100.00;93327.53;2090625;28;20091;-85
2021/10/16 03:39:41;;;;;;;3.10;2.63;;;;;;;-0.47;100.00;93325.09;2090603;28;20025;-84
2021/10/16 03:40:42;;;;;;;3.97;2.70;;;;;;;-0.48;100.00;93325.41;2090519;28;20025;-85
2021/10/16 03:41:43;;;;;;;3.05;2.75;;;;;;;-0.49;100.00;93321.28;2090557;28;20016;-85
2021/10/16 03:42:44;;;;;;;3.58;3.00;;;;;;;-0.45;100.00;93315.00;2090530;28;20016;-84
2021/10/16 03:43:46;;;;;;;3.03;2.53;;;;;;;-0.46;100.00;93316.13;2098930;28;20082;-82
2021/10/16 03:44:47;;;;;;;4.07;3.05;;;;;;;-0.45;100.00;93319.50;2098962;28;20078;-84
2021/10/16 03:45:47;;;;;;;3.17;2.88;;;;;;;-0.46;100.00;93321.38;2082487;28;20490;-85
2021/10/16 03:46:48;;;;;;;3.53;2.85;;;;;;;-0.48;100.00;93309.66;2090614;28;20092;-83
2021/10/16 03:47:49;;;;;;;3.72;2.92;;;;;;;-0.45;100.00;93314.25;2098775;28;20021;-82
2021/10/16 03:48:50;;;;;;;4.03;3.05;;;;;;;-0.52;100.00;93320.88;2090405;28;20040;-82
2021/10/16 03:49:51;;;;;;;3.85;2.92;;;;;;;-0.56;100.00;93314.78;2090437;28;20025;-83
2021/10/16 03:50:52;;;;;;;3.10;2.80;;;;;;;-0.56;100.00;93325.28;2090469;28;20466;-83
2021/10/16 03:51:53;;;;;;;4.32;3.53;;;;;;;-0.55;100.00;93318.16;2074140;28;20064;-83
2021/10/16 03:52:54;;;;;;;3.70;2.58;;;;;;;-0.49;100.00;93316.03;2082275;28;20026;-83
2021/10/16 03:53:55;;;;;;;3.08;2.80;;;;;;;-0.48;100.00;93314.91;2082210;28;20036;-84
2021/10/16 03:54:56;;;;;;;4.32;3.15;;;;;;;-0.49;100.00;93313.41;2082304;28;20026;-82
2021/10/16 03:55:57;;;;;;;4.82;3.00;;;;;;;-0.55;100.00;93318.91;2082215;28;20464;-84
2021/10/16 03:56:58;;;;;;;5.30;3.47;;;;;;;-0.55;100.00;93311.03;2090377;28;20024;-84
2021/10/16 03:57:59;;;;;;;4.05;2.88;;;;;;;-0.53;100.00;93313.31;2082082;28;20502;-85
2021/10/16 03:59:00;;;;;;;5.95;3.60;;;;;;;-0.63;100.00;93311.97;2082316;28;20025;-83
2021/10/16 04:00:03;;;;;;;4.20;3.38;;;;;;;-0.62;100.00;93318.75;2090396;28;20028;-83
2021/10/16 04:01:04;;;;;;;3.35;3.05;;;;;;;-0.60;100.00;93313.94;2090680;28;20017;-83
2021/10/16 04:02:05;;;;;;;4.50;3.40;;;;;;;-0.58;100.00;93313.56;2082198;28;20147;-85
2021/10/16 04:03:06;;;;;;;5.18;3.05;;;;;;;-0.58;100.00;93309.09;2082240;28;20178;-84
2021/10/16 04:04:07;;;;;;;3.97;3.15;;;;;;;-0.56;100.00;93308.75;2090503;28;20032;-83
2021/10/16 04:05:09;;;;;;;4.80;3.47;;;;;;;-0.58;100.00;93310.94;2090388;28;20028;-84
2021/10/16 04:06:14;;;;;;;4.50;3.40;;;;;;;-0.66;100.00;93314.50;2090828;28;20025;-84
2021/10/16 04:07:15;;;;;;;7.25;3.70;;;;;;;-0.66;100.00;93310.03;2082415;28;20108;-84
2021/10/16 04:08:16;;;;;;;3.30;3.00;;;;;;;-0.58;100.00;93305.69;2073998;28;20498;-85
2021/10/16 04:09:17;;;;;;;4.68;3.70;;;;;;;-0.59;100.00;93314.69;2082184;28;20123;-83
2021/10/16 04:10:18;;;;;;;6.78;3.15;;;;;;;-0.64;100.00;93305.22;2098587;28;20465;-83
2021/10/16 04:11:19;;;;;;;7.35;3.67;;;;;;;-0.55;100.00;93310.28;2107530;28;20032;-83
2021/10/16 04:12:19;;;;;;;4.65;3.40;;;;;;;-0.63;100.00;93305.97;2106842;28;20102;-83
2021/10/16 04:13:20;;;;;;;5.32;3.42;;;;;;;-0.65;100.00;93306.31;2107155;28;20032;-83
2021/10/16 04:14:21;;;;;;;4.95;3.50;;;;;;;-0.60;100.00;93313.94;2098556;28;20527;-84
2021/10/16 04:15:22;;;;;;;5.38;3.42;;;;;;;-0.57;100.00;93304.59;2090183;28;20033;-80
2021/10/16 04:16:23;;;;;;;4.63;3.13;;;;;;;-0.61;100.00;93304.53;2090270;28;20028;-83
2021/10/16 04:17:24;;;;;;;5.20;3.50;;;;;;;-0.65;100.00;93319.44;2090340;28;20462;-82
2021/10/16 04:18:25;;;;;;;5.05;3.45;;;;;;;-0.62;100.00;93310.09;2098540;28;20024;-82
2021/10/16 04:19:26;;;;;;;4.95;3.60;;;;;;;-0.63;100.00;93308.59;2098520;28;20484;-85
2021/10/16 04:20:27;;;;;;;3.80;3.10;;;;;;;-0.63;100.00;93319.84;2082028;28;20033;-82
2021/10/16 04:21:28;;;;;;;5.57;3.50;;;;;;;-0.61;100.00;93309.78;2082067;28;20029;-82
2021/10/16 04:22:29;;;;;;;4.90;3.40;;;;;;;-0.61;100.00;93312.41;2088916;28;20067;-82
2021/10/16 04:23:30;;;;;;;4.63;3.90;;;;;;;-0.60;100.00;93311.31;2073885;28;20084;-82
2021/10/16 04:24:31;;;;;;;4.03;3.20;;;;;;;-0.63;100.00;93309.34;2081999;28;20040;-82
2021/10/16 04:25:32;;;;;;;9.10;3.35;;;;;;;-0.77;100.00;93306.41;2098598;28;20031;-84
2021/10/16 04:26:33;;;;;;;6.50;3.30;;;;;;;-0.72;100.00;93310.63;2097904;28;20039;-83
2021/10/16 04:27:34;;;;;;;4.13;3.22;;;;;;;-0.72;100.00;93311.38;2098494;28;20053;-83
2021/10/16 04:28:35;;;;;;;5.03;3.80;;;;;;;-0.64;100.00;93312.31;2098386;28;20497;-84
2021/10/16 04:29:35;;;;;;;4.38;3.63;;;;;;;-0.62;100.00;93317.97;2081923;28;20132;-83
2021/10/16 04:30:36;;;;;;;4.95;3.53;;;;;;;-0.71;100.00;93310.28;2073142;28;20084;-83
2021/10/16 04:31:37;;;;;;;5.28;3.45;;;;;;;-0.65;100.00;93306.31;2081627;28;20121;-83
2021/10/16 04:32:38;;;;;;;3.97;3.55;;;;;;;-0.65;100.00;93311.56;2081905;28;20033;-84
2021/10/16 04:33:39;;;;;;;7.50;3.50;;;;;;;-0.65;100.00;93313.44;2073792;28;20026;-84
2021/10/16 04:34:40;;;;;;;4.43;3.20;;;;;;;-0.63;100.00;93316.47;2081926;28;20029;-83
2021/10/16 04:35:41;;;;;;;4.32;3.47;;;;;;;-0.73;100.00;93309.88;2098440;28;20055;-84
2021/10/16 04:36:42;;;;;;;3.83;3.45;;;;;;;-0.70;100.00;93303.16;2090215;28;20494;-82
2021/10/16 04:37:43;;;;;;;3.40;3.10;;;;;;;-0.70;100.00;93313.66;2090129;28;20470;-83
2021/10/16 04:38:47;;;;;;;4.00;3.60;;;;;;;-0.74;100.00;93312.84;2090172;28;20076;-84
2021/10/16 04:39:48;;;;;;;3.80;3.28;;;;;;;-0.69;100.00;93317.84;2090666;28;20032;-82
2021/10/16 04:40:49;;;;;;;3.90;3.45;;;;;;;-0.69;100.00;93315.22;2081929;28;20087;-81
2021/10/16 04:41:50;;;;;;;4.97;3.10;;;;;;;-0.70;100.00;93316.28;2073677;28;20072;-85
2021/10/16 04:42:53;;;;;;;5.90;3.78;;;;;;;-0.65;100.00;93311.56;2081865;28;20923;-82
2021/10/16 04:43:54;;;;;;;4.47;3.70;;;;;;;-0.72;100.00;93315.88;2090449;28;20033;-84
2021/10/16 04:44:55;;;;;;;6.25;3.55;;;;;;;-0.76;100.00;93311.28;2098502;28;20028;-83
2021/10/16 04:45:56;;;;;;;4.25;3.70;;;;;;;-0.73;100.00;93314.38;2098270;28;20028;-83
2021/10/16 04:46:57;;;;;;;5.95;3.80;;;;;;;-0.67;100.00;93305.13;2089972;28;20086;-84
2021/10/16 04:48:00;;;;;;;5.55;3.83;;;;;;;-0.79;100.00;93313.84;2090103;28;20088;-82
2021/10/16 04:49:01;;;;;;;5.28;3.53;;;;;;;-0.73;100.00;93311.75;2098148;28;20029;-84